createdAt,value
2022-11-10T00:00:16.683Z,96659.41
2022-11-10T00:02:50.914Z,96662.19
2022-11-10T00:05:23.751Z,96664.09
2022-11-10T00:08:28.146Z,96666.88
2022-11-10T00:11:06.533Z,96673.47
2022-11-10T00:14:00.987Z,96670.00
2022-11-10T00:16:51.676Z,96674.25
2022-11-10T00:19:25.877Z,96678.97
2022-11-10T00:21:59.399Z,96687.81
2022-11-10T00:24:32.222Z,96692.06
2022-11-10T00:27:05.410Z,96683.97
2022-11-10T00:29:38.244Z,96694.41
2022-11-10T00:32:11.777Z,96685.53
2022-11-10T00:34:46.019Z,96691.38
2022-11-10T00:37:19.256Z,96701.81
2022-11-10T00:39:52.376Z,96695.97
2022-11-10T00:42:25.576Z,96708.31
2022-11-10T00:44:58.432Z,96706.72
2022-11-10T00:47:31.304Z,96710.22
2022-11-10T00:50:06.565Z,96712.56
2022-11-10T00:52:39.408Z,96719.50
2022-11-10T00:55:12.216Z,96725.69
2022-11-10T00:57:45.026Z,96738.00
2022-11-10T01:00:18.494Z,96728.38
2022-11-10T01:02:51.328Z,96734.16
2022-11-10T01:05:25.804Z,96743.47
2022-11-10T01:07:59.574Z,96733.03
2022-11-10T01:10:32.595Z,96730.00
2022-11-10T01:13:05.631Z,96744.25
2022-11-10T01:15:40.899Z,96740.78
2022-11-10T01:18:15.467Z,96747.72
2022-11-10T01:20:52.953Z,96754.34
2022-11-10T01:23:29.035Z,96749.63
2022-11-10T01:26:03.176Z,96752.00
2022-11-10T01:28:37.317Z,96751.19
2022-11-10T01:31:12.367Z,96750.09
2022-11-10T01:33:45.667Z,96746.16
2022-11-10T01:36:20.020Z,96749.63
2022-11-10T01:38:52.850Z,96745.38
2022-11-10T01:41:25.738Z,96746.16
2022-11-10T01:44:14.567Z,96746.59
2022-11-10T01:46:47.410Z,96748.41
2022-11-10T01:49:25.762Z,96750.75
2022-11-10T01:52:03.076Z,96754.94
2022-11-10T01:54:40.118Z,96751.78
2022-11-10T01:57:14.902Z,96757.50
2022-11-10T01:59:50.189Z,96770.50
2022-11-10T02:02:28.251Z,96768.16
2022-11-10T02:05:04.357Z,96771.22
2022-11-10T02:07:39.942Z,96769.97
2022-11-10T02:10:16.208Z,96766.50
2022-11-10T02:12:50.211Z,96767.97
2022-11-10T02:15:23.416Z,96765.59
2022-11-10T02:17:56.419Z,96771.34
2022-11-10T02:20:29.294Z,96777.84
2022-11-10T02:23:15.036Z,96775.94
2022-11-10T02:25:47.939Z,96780.75
2022-11-10T02:28:20.747Z,96790.31
2022-11-10T02:30:53.896Z,96790.31
2022-11-10T02:33:26.671Z,96791.06
2022-11-10T02:35:59.555Z,96793.75
2022-11-10T02:38:33.950Z,96799.25
2022-11-10T02:41:06.965Z,96802.38
2022-11-10T02:43:40.353Z,96805.53
2022-11-10T02:46:13.583Z,96807.84
2022-11-10T02:48:46.483Z,96818.28
2022-11-10T02:51:19.560Z,96816.03
2022-11-10T02:53:53.927Z,96826.13
2022-11-10T02:56:26.746Z,96828.81
2022-11-10T02:58:59.604Z,96833.09
2022-11-10T03:01:32.856Z,96843.16
2022-11-10T03:04:06.897Z,96842.03
2022-11-10T03:06:39.716Z,96844.72
2022-11-10T03:09:14.241Z,96842.47
2022-11-10T03:11:47.019Z,96846.28
2022-11-10T03:14:19.836Z,96847.41
2022-11-10T03:16:52.897Z,96844.25
2022-11-10T03:19:25.645Z,96862.22
2022-11-10T03:21:58.612Z,96863.22
2022-11-10T03:24:32.871Z,96866.47
2022-11-10T03:27:05.730Z,96869.75
2022-11-10T03:29:38.513Z,96871.44
2022-11-10T03:32:11.321Z,96869.28
2022-11-10T03:34:44.120Z,96881.72
2022-11-10T03:37:17.003Z,96883.41
2022-11-10T03:39:51.243Z,96890.13
2022-11-10T03:42:24.170Z,96893.38
2022-11-10T03:44:56.998Z,96899.72
2022-11-10T03:47:29.927Z,96900.28
2022-11-10T03:50:02.776Z,96901.72
2022-11-10T03:52:35.704Z,96900.94
2022-11-10T03:55:11.855Z,96899.03
2022-11-10T03:57:44.802Z,96897.47
2022-11-10T04:00:18.284Z,96907.41
2022-11-10T04:02:51.103Z,96903.63
2022-11-10T04:05:41.340Z,96915.94
2022-11-10T04:08:34.766Z,96917.50
2022-11-10T04:11:09.015Z,96916.06
2022-11-10T04:13:59.281Z,96919.88
2022-11-10T04:16:32.093Z,96927.59
2022-11-10T04:19:05.008Z,96926.50
2022-11-10T04:21:37.898Z,96938.03
2022-11-10T04:24:10.765Z,96947.31
2022-11-10T04:26:47.515Z,96944.28
2022-11-10T04:29:21.384Z,96946.66
2022-11-10T04:31:54.172Z,96942.84
2022-11-10T04:34:27.401Z,96951.03
2022-11-10T04:37:00.248Z,96944.53
2022-11-10T04:39:33.076Z,96949.56
2022-11-10T04:42:07.384Z,96950.38
2022-11-10T04:44:40.328Z,96954.84
2022-11-10T04:47:13.167Z,96961.22
2022-11-10T04:49:46.014Z,96955.59
2022-11-10T04:52:18.825Z,96962.94
2022-11-10T04:54:51.640Z,96958.00
2022-11-10T04:57:26.027Z,96967.19
2022-11-10T04:59:58.806Z,96970.19
2022-11-10T05:02:35.544Z,96976.59
2022-11-10T05:05:11.804Z,96975.28
2022-11-10T05:07:44.623Z,96971.72
2022-11-10T05:10:17.659Z,96967.41
2022-11-10T05:12:54.473Z,96980.38
2022-11-10T05:15:27.470Z,96979.06
2022-11-10T05:18:00.570Z,96981.31
2022-11-10T05:20:33.536Z,96977.75
2022-11-10T05:23:24.625Z,96983.75
2022-11-10T05:25:57.784Z,96984.41
2022-11-10T05:28:32.174Z,96982.84
2022-11-10T05:31:05.254Z,96992.81
2022-11-10T05:33:39.051Z,97011.25
2022-11-10T05:36:12.113Z,97017.72
2022-11-10T05:38:44.912Z,97024.66
2022-11-10T05:41:17.718Z,97034.28
2022-11-10T05:43:52.572Z,97044.38
2022-11-10T05:46:25.898Z,97047.06
2022-11-10T05:48:59.244Z,97059.03
2022-11-10T05:51:32.194Z,97058.69
2022-11-10T05:54:05.416Z,97050.81
2022-11-10T05:56:38.553Z,97049.53
2022-11-10T05:59:13.391Z,97049.53
2022-11-10T06:01:51.165Z,97044.19
2022-11-10T06:04:25.439Z,97049.41
2022-11-10T06:06:58.746Z,97055.53
2022-11-10T06:09:32.133Z,97067.50
2022-11-10T06:12:20.816Z,97070.66
2022-11-10T06:14:56.019Z,97072.56
2022-11-10T06:17:29.317Z,97088.16
2022-11-10T06:20:02.528Z,97088.16
2022-11-10T06:22:35.812Z,97095.88
2022-11-10T06:25:10.017Z,97107.38
2022-11-10T06:27:46.553Z,97095.09
2022-11-10T06:30:23.111Z,97103.44
2022-11-10T06:32:56.934Z,97104.06
2022-11-10T06:35:31.283Z,97103.88
2022-11-10T06:38:07.600Z,97105.16
2022-11-10T06:40:40.944Z,97117.47
2022-11-10T06:43:14.638Z,97127.06
2022-11-10T06:45:49.171Z,97122.94
2022-11-10T06:48:22.285Z,97131.00
2022-11-10T06:50:55.644Z,97123.44
2022-11-10T06:53:28.957Z,97126.00
2022-11-10T06:56:02.276Z,97125.03
2022-11-10T06:58:35.237Z,97132.88
2022-11-10T07:01:10.092Z,97136.69
2022-11-10T07:04:05.170Z,97133.81
2022-11-10T07:06:36.549Z,97144.53
2022-11-10T07:09:09.664Z,97143.25
2022-11-10T07:11:43.334Z,97144.00
2022-11-10T07:14:16.725Z,97156.16
2022-11-10T07:16:51.932Z,97163.03
2022-11-10T07:19:25.236Z,97162.22
2022-11-10T07:21:58.266Z,97172.63
2022-11-10T07:24:31.418Z,97174.03
2022-11-10T07:27:04.487Z,97194.00
2022-11-10T07:29:38.087Z,97181.66
2022-11-10T07:32:12.542Z,97189.66
2022-11-10T07:34:45.549Z,97192.31
2022-11-10T07:37:18.494Z,97197.22
2022-11-10T07:39:51.466Z,97195.59
2022-11-10T07:42:24.641Z,97195.06
2022-11-10T07:44:57.514Z,97198.69
2022-11-10T07:47:31.781Z,97203.22
2022-11-10T07:50:05.176Z,97212.19
2022-11-10T07:52:38.047Z,97211.22
2022-11-10T07:55:11.095Z,97221.78
2022-11-10T07:57:43.963Z,97222.03
2022-11-10T08:00:18.436Z,97229.16
2022-11-10T08:02:52.775Z,97244.28
2022-11-10T08:05:25.725Z,97239.50
2022-11-10T08:08:00.152Z,97238.97
2022-11-10T08:10:34.084Z,97242.25
2022-11-10T08:13:08.916Z,97250.56
2022-11-10T08:15:42.466Z,97247.38
2022-11-10T08:18:20.088Z,97260.75
2022-11-10T08:20:53.460Z,97255.63
2022-11-10T08:23:26.295Z,97262.09
2022-11-10T08:25:59.774Z,97260.75
2022-11-10T08:28:32.545Z,97264.47
2022-11-10T08:31:06.354Z,97275.50
2022-11-10T08:33:40.748Z,97265.31
2022-11-10T08:36:14.353Z,97266.22
2022-11-10T08:38:47.187Z,97276.47
2022-11-10T08:41:20.070Z,97280.84
2022-11-10T08:43:52.913Z,97277.91
2022-11-10T08:46:25.752Z,97280.75
2022-11-10T08:49:00.543Z,97284.00
2022-11-10T08:51:38.741Z,97290.31
2022-11-10T08:54:11.909Z,97295.47
2022-11-10T08:56:44.709Z,97297.28
2022-11-10T08:59:17.896Z,97297.41
2022-11-10T09:01:50.724Z,97306.06
2022-11-10T09:04:25.310Z,97307.84
2022-11-10T09:06:58.350Z,97317.31
2022-11-10T09:09:31.218Z,97323.59
2022-11-10T09:12:04.268Z,97326.44
2022-11-10T09:14:37.135Z,97327.00
2022-11-10T09:17:10.004Z,97326.81
2022-11-10T09:19:44.251Z,97325.00
2022-11-10T09:22:17.145Z,97327.38
2022-11-10T09:24:49.932Z,97335.13
2022-11-10T09:27:23.092Z,97334.34
2022-11-10T09:29:55.852Z,97330.06
2022-11-10T09:32:28.954Z,97333.88
2022-11-10T09:35:03.765Z,97326.56
2022-11-10T09:37:40.126Z,97333.53
2022-11-10T09:40:18.789Z,97327.03
2022-11-10T09:42:56.660Z,97327.50
2022-11-10T09:45:38.686Z,97339.50
2022-11-10T09:48:18.887Z,97336.13
2022-11-10T09:50:56.949Z,97336.25
2022-11-10T09:53:38.059Z,97340.28
2022-11-10T09:56:17.820Z,97341.97
2022-11-10T09:58:51.366Z,97341.28
2022-11-10T10:01:31.715Z,97344.88
2022-11-10T10:04:21.824Z,97349.94
2022-11-10T10:07:11.926Z,97346.13
2022-11-10T10:09:54.319Z,97348.47
2022-11-10T10:12:47.383Z,97355.44
2022-11-10T10:15:30.979Z,97350.84
2022-11-10T10:18:20.564Z,97341.97
2022-11-10T10:21:07.229Z,97345.53
2022-11-10T10:26:43.267Z,97355.34
2022-11-10T10:29:21.735Z,97352.41
2022-11-10T10:31:55.086Z,97343.50
2022-11-10T10:34:30.490Z,97345.00
2022-11-10T10:37:03.678Z,97348.69
2022-11-10T10:39:42.989Z,97349.81
2022-11-10T10:42:25.830Z,97355.44
2022-11-10T10:45:15.844Z,97365.47
2022-11-10T10:47:50.871Z,97369.84
2022-11-10T10:50:30.250Z,97377.16
2022-11-10T10:53:14.746Z,97373.66
2022-11-10T10:56:00.165Z,97377.03
2022-11-10T10:58:36.125Z,97378.84
2022-11-10T11:01:25.508Z,97376.47
2022-11-10T11:03:59.102Z,97383.31
2022-11-10T11:06:33.125Z,97381.75
2022-11-10T11:09:10.282Z,97381.06
2022-11-10T11:11:46.217Z,97380.41
2022-11-10T11:14:24.220Z,97380.63
2022-11-10T11:16:58.366Z,97386.25
2022-11-10T11:19:36.734Z,97378.72
2022-11-10T11:22:43.795Z,97383.91
2022-11-10T11:25:24.787Z,97379.38
2022-11-10T11:28:11.304Z,97370.75
2022-11-10T11:30:54.223Z,97372.84
2022-11-10T11:33:38.452Z,97368.66
2022-11-10T11:36:20.402Z,97373.31
2022-11-10T11:39:06.410Z,97368.66
2022-11-10T11:41:46.673Z,97358.56
2022-11-10T11:44:34.440Z,97360.47
2022-11-10T11:47:24.077Z,97370.94
2022-11-10T11:50:14.715Z,97371.72
2022-11-10T11:52:56.307Z,97373.72
2022-11-10T11:55:40.091Z,97372.28
2022-11-10T11:58:28.204Z,97370.03
2022-11-10T12:01:15.610Z,97370.81
2022-11-10T12:04:06.866Z,97371.94
2022-11-10T12:06:56.091Z,97365.63
2022-11-10T12:09:41.107Z,97376.69
2022-11-10T12:12:43.838Z,97376.47
2022-11-10T12:15:29.621Z,97370.84
2022-11-10T12:18:14.496Z,97368.72
2022-11-10T12:21:01.470Z,97366.91
2022-11-10T12:23:46.681Z,97360.63
2022-11-10T12:26:31.046Z,97361.19
2022-11-10T12:29:10.638Z,97369.50
2022-11-10T12:31:47.688Z,97365.00
2022-11-10T12:34:31.933Z,97365.91
2022-11-10T12:37:09.222Z,97364.75
2022-11-10T12:39:50.972Z,97360.78
2022-11-10T12:42:27.417Z,97363.00
2022-11-10T12:45:03.089Z,97368.69
2022-11-10T12:47:42.538Z,97367.88
2022-11-10T12:50:31.716Z,97365.56
2022-11-10T12:53:12.500Z,97361.84
2022-11-10T12:55:56.395Z,97359.00
2022-11-10T12:58:30.944Z,97350.47
2022-11-10T13:01:06.757Z,97361.72
2022-11-10T13:03:41.297Z,97357.75
2022-11-10T13:06:28.541Z,97353.84
2022-11-10T13:09:01.589Z,97352.00
2022-11-10T13:11:37.296Z,97343.34
2022-11-10T13:14:23.386Z,97347.03
2022-11-10T13:16:56.624Z,97346.78
2022-11-10T13:19:49.447Z,97346.59
2022-11-10T13:22:39.358Z,97341.44
2022-11-10T13:25:54.177Z,97342.06
2022-11-10T13:29:02.554Z,97351.72
2022-11-10T13:31:57.666Z,97347.44
2022-11-10T13:34:35.690Z,97346.00
2022-11-10T13:37:42.540Z,97339.31
2022-11-10T13:40:36.629Z,97339.91
2022-11-10T13:43:27.909Z,97345.22
2022-11-10T13:46:06.332Z,97339.66
2022-11-10T13:48:51.222Z,97339.44
2022-11-10T13:51:41.100Z,97329.47
2022-11-10T13:54:34.711Z,97335.97
2022-11-10T13:57:21.030Z,97342.03
2022-11-10T13:59:56.801Z,97345.38
2022-11-10T14:02:57.327Z,97344.91
2022-11-10T14:06:05.788Z,97344.81
2022-11-10T14:08:49.755Z,97340.53
2022-11-10T14:11:28.546Z,97339.59
2022-11-10T14:14:11.621Z,97345.31
2022-11-10T14:16:45.082Z,97349.28
2022-11-10T14:19:26.825Z,97350.06
2022-11-10T14:22:04.448Z,97341.84
2022-11-10T14:24:40.479Z,97344.88
2022-11-10T14:27:17.177Z,97335.56
2022-11-10T14:30:05.428Z,97347.91
2022-11-10T14:32:38.401Z,97348.09
2022-11-10T14:35:21.265Z,97348.78
2022-11-10T14:37:59.551Z,97360.19
2022-11-10T14:40:32.441Z,97359.72
2022-11-10T14:43:05.289Z,97361.13
2022-11-10T14:45:41.205Z,97359.13
2022-11-10T14:48:20.053Z,97362.59
2022-11-10T14:50:53.979Z,97360.09
2022-11-10T14:53:30.309Z,97358.19
2022-11-10T14:56:05.820Z,97352.69
2022-11-10T14:58:40.396Z,97358.38
2022-11-10T15:01:27.278Z,97356.81
2022-11-10T15:04:00.691Z,97362.81
2022-11-10T15:06:34.690Z,97360.03
2022-11-10T15:09:15.446Z,97360.81
2022-11-10T15:11:51.265Z,97363.34
2022-11-10T15:14:33.429Z,97359.88
2022-11-10T15:17:10.561Z,97365.13
2022-11-10T15:19:55.206Z,97368.94
2022-11-10T15:22:30.739Z,97372.25
2022-11-10T15:25:11.955Z,97362.13
2022-11-10T15:27:57.773Z,97356.94
2022-11-10T15:30:31.090Z,97359.03
2022-11-10T15:33:11.879Z,97361.56
2022-11-10T15:35:44.739Z,97370.94
2022-11-10T15:38:30.555Z,97361.16
2022-11-10T15:41:12.974Z,97357.84
2022-11-10T15:43:45.772Z,97354.41
2022-11-10T15:46:22.098Z,97356.16
2022-11-10T15:48:56.357Z,97357.75
2022-11-10T15:51:29.446Z,97367.41
2022-11-10T15:54:03.565Z,97361.25
2022-11-10T15:56:36.681Z,97367.13
2022-11-10T15:59:11.225Z,97369.19
2022-11-10T16:01:44.109Z,97372.22
2022-11-10T16:04:18.442Z,97384.22
2022-11-10T16:06:51.333Z,97378.09
2022-11-10T16:09:24.172Z,97388.47
2022-11-10T16:11:57.155Z,97404.13
2022-11-10T16:14:30.623Z,97399.22
2022-11-10T16:17:03.521Z,97400.34
2022-11-10T16:19:37.730Z,97391.94
2022-11-10T16:22:11.992Z,97406.13
2022-11-10T16:24:45.290Z,97408.00
2022-11-10T16:27:18.617Z,97418.72
2022-11-10T16:29:51.472Z,97417.59
2022-11-10T16:32:24.539Z,97419.13
2022-11-10T16:34:59.015Z,97426.34
2022-11-10T16:37:34.927Z,97428.69
2022-11-10T16:40:14.604Z,97439.06
2022-11-10T16:42:47.885Z,97430.81
2022-11-10T16:45:23.435Z,97438.00
2022-11-10T16:47:56.563Z,97450.56
2022-11-10T16:50:36.062Z,97459.84
2022-11-10T16:53:17.163Z,97451.75
2022-11-10T16:55:49.994Z,97458.94
2022-11-10T16:58:23.003Z,97459.38
2022-11-10T17:00:59.790Z,97465.94
2022-11-10T17:03:35.410Z,97470.13
2022-11-10T17:06:13.546Z,97476.38
2022-11-10T17:08:48.229Z,97472.56
2022-11-10T17:11:21.129Z,97474.84
2022-11-10T17:13:53.979Z,97481.41
2022-11-10T17:16:29.995Z,97485.78
2022-11-10T17:19:04.261Z,97474.97
2022-11-10T17:21:39.906Z,97482.78
2022-11-10T17:24:15.334Z,97485.09
2022-11-10T17:26:48.767Z,97488.19
2022-11-10T17:29:22.475Z,97491.25
2022-11-10T17:31:55.854Z,97503.13
2022-11-10T17:34:28.748Z,97497.09
2022-11-10T17:37:03.050Z,97496.88
2022-11-10T17:39:35.948Z,97492.75
2022-11-10T17:42:13.086Z,97495.53
2022-11-10T17:44:45.936Z,97502.84
2022-11-10T17:47:18.812Z,97507.50
2022-11-10T17:49:51.651Z,97504.13
2022-11-10T17:52:25.892Z,97514.59
2022-11-10T17:54:58.911Z,97520.81
2022-11-10T17:57:32.003Z,97520.13
2022-11-10T18:00:06.523Z,97517.75
2022-11-10T18:02:39.405Z,97521.59
2022-11-10T18:05:13.774Z,97530.19
2022-11-10T18:07:50.948Z,97533.19
2022-11-10T18:10:23.913Z,97524.44
2022-11-10T18:12:56.702Z,97534.13
2022-11-10T18:15:29.534Z,97530.47
2022-11-10T18:18:02.342Z,97532.34
2022-11-10T18:20:35.159Z,97534.00
2022-11-10T18:23:12.339Z,97528.47
2022-11-10T18:25:45.251Z,97536.25
2022-11-10T18:28:18.181Z,97534.19
2022-11-10T18:30:50.996Z,97537.69
2022-11-10T18:33:24.186Z,97540.19
2022-11-10T18:35:59.629Z,97541.53
2022-11-10T18:38:33.894Z,97540.56
2022-11-10T18:41:22.067Z,97540.31
2022-11-10T18:43:57.383Z,97541.97
2022-11-10T18:46:30.215Z,97543.66
2022-11-10T18:49:03.359Z,97546.09
2022-11-10T18:51:37.144Z,97541.63
2022-11-10T18:54:11.550Z,97538.72
2022-11-10T18:56:44.403Z,97542.25
2022-11-10T18:59:17.434Z,97545.22
2022-11-10T19:01:51.045Z,97547.66
2022-11-10T19:04:24.121Z,97551.72
2022-11-10T19:06:57.068Z,97547.72
2022-11-10T19:09:31.503Z,97544.28
2022-11-10T19:12:04.605Z,97540.28
2022-11-10T19:14:37.403Z,97536.81
2022-11-10T19:17:10.347Z,97544.03
2022-11-10T19:19:43.106Z,97548.09
2022-11-10T19:22:15.967Z,97550.44
2022-11-10T19:25:08.503Z,97551.25
2022-11-10T19:27:41.564Z,97554.50
2022-11-10T19:30:15.165Z,97553.44
2022-11-10T19:32:48.246Z,97553.19
2022-11-10T19:35:21.022Z,97555.06
2022-11-10T19:37:54.210Z,97563.34
2022-11-10T19:40:28.492Z,97562.88
2022-11-10T19:43:01.311Z,97569.56
2022-11-10T19:45:35.973Z,97569.03
2022-11-10T19:48:08.824Z,97570.41
2022-11-10T19:50:46.558Z,97571.47
2022-11-10T19:53:22.377Z,97579.28
2022-11-10T19:56:02.071Z,97576.31
2022-11-10T19:58:38.073Z,97581.16
2022-11-10T20:01:11.792Z,97585.16
2022-11-10T20:03:44.949Z,97584.66
2022-11-10T20:06:20.071Z,97587.91
2022-11-10T20:08:53.345Z,97587.91
2022-11-10T20:11:28.135Z,97579.38
2022-11-10T20:14:01.536Z,97585.78
2022-11-10T20:16:34.336Z,97576.47
2022-11-10T20:19:07.183Z,97578.38
2022-11-10T20:21:39.978Z,97586.66
2022-11-10T20:24:12.928Z,97577.63
2022-11-10T20:26:47.274Z,97578.44
2022-11-10T20:29:20.047Z,97577.13
2022-11-10T20:31:52.863Z,97578.22
2022-11-10T20:34:26.162Z,97570.78
2022-11-10T20:36:59.280Z,97575.31
2022-11-10T20:39:32.241Z,97574.00
2022-11-10T20:42:06.469Z,97584.16
2022-11-10T20:44:39.406Z,97583.94
2022-11-10T20:47:12.306Z,97587.66
2022-11-10T20:49:45.202Z,97590.88
2022-11-10T20:52:18.550Z,97591.47
2022-11-10T20:54:51.567Z,97599.19
2022-11-10T20:57:25.780Z,97595.72
2022-11-10T20:59:58.771Z,97591.47
2022-11-10T21:02:31.660Z,97590.09
2022-11-10T21:05:04.927Z,97585.81
2022-11-10T21:07:38.002Z,97591.38
2022-11-10T21:10:11.029Z,97584.94
2022-11-10T21:12:51.219Z,97595.28
2022-11-10T21:15:24.618Z,97589.09
2022-11-10T21:17:57.479Z,97588.75
2022-11-10T21:20:30.334Z,97586.25
2022-11-10T21:23:03.824Z,97582.75
2022-11-10T21:25:36.961Z,97591.69
2022-11-10T21:28:11.279Z,97591.56
2022-11-10T21:30:44.369Z,97583.22
2022-11-10T21:33:17.405Z,97590.84
2022-11-10T21:35:50.549Z,97595.84
2022-11-10T21:38:23.453Z,97600.88
2022-11-10T21:40:58.599Z,97599.44
2022-11-10T21:43:32.926Z,97605.47
2022-11-10T21:46:06.840Z,97602.72
2022-11-10T21:48:39.746Z,97605.63
2022-11-10T21:51:14.388Z,97598.13
2022-11-10T21:53:47.554Z,97599.13
2022-11-10T21:56:20.422Z,97596.66
2022-11-10T21:58:54.612Z,97599.25
2022-11-10T22:01:27.630Z,97601.34
2022-11-10T22:04:00.489Z,97612.53
2022-11-10T22:06:47.273Z,97609.59
2022-11-10T22:09:40.256Z,97617.50
2022-11-10T22:12:32.161Z,97613.97
2022-11-10T22:15:25.707Z,97623.28
2022-11-10T22:18:16.197Z,97618.44
2022-11-10T22:20:49.128Z,97626.69
2022-11-10T22:23:42.407Z,97627.97
2022-11-10T22:26:15.536Z,97638.59
2022-11-10T22:28:49.287Z,97637.97
2022-11-10T22:31:23.470Z,97630.97
2022-11-10T22:33:56.295Z,97633.06
2022-11-10T22:36:29.247Z,97630.31
2022-11-10T22:39:03.827Z,97624.41
2022-11-10T22:41:54.639Z,97620.81
2022-11-10T22:44:27.602Z,97623.72
2022-11-10T22:47:02.062Z,97627.88
2022-11-10T22:49:34.915Z,97618.78
2022-11-10T22:52:07.737Z,97626.19
2022-11-10T22:54:40.561Z,97613.34
2022-11-10T22:57:13.337Z,97618.09
2022-11-10T22:59:46.193Z,97622.84
2022-11-10T23:02:20.331Z,97618.28
2022-11-10T23:04:53.143Z,97609.47
2022-11-10T23:07:25.930Z,97608.38
2022-11-10T23:09:58.734Z,97596.31
2022-11-10T23:12:31.737Z,97601.97
2022-11-10T23:15:04.933Z,97602.47
2022-11-10T23:17:39.140Z,97602.97
2022-11-10T23:20:12.527Z,97604.06
2022-11-10T23:22:45.405Z,97607.53
2022-11-10T23:25:18.266Z,97608.03
2022-11-10T23:27:51.043Z,97608.03
2022-11-10T23:30:24.313Z,97610.69
2022-11-10T23:32:58.594Z,97608.22
2022-11-10T23:35:33.241Z,97613.28
2022-11-10T23:38:06.216Z,97616.25
2022-11-10T23:40:39.333Z,97614.06
2022-11-10T23:43:12.245Z,97609.81
2022-11-10T23:46:06.027Z,97599.41
2022-11-10T23:48:40.661Z,97611.38
2022-11-10T23:51:15.441Z,97609.00
2022-11-10T23:53:48.302Z,97603.94
2022-11-10T23:56:21.250Z,97609.00
2022-11-10T23:58:54.085Z,97612.97
